Time;durP1;ratioP1;P1;durP2;ratioP2;P2;SDS_P1;SDS_P2;PMS_P1;PMS_P2;Temp;Humidity;BMP_temperature;BMP_pressure;BME280_temperature;BME280_humidity;BME280_pressure;Samples;Min_cycle;Max_cycle;Signal;HPM_P1;HPM_P2
2023/03/03 00:01:24;;;;;;;117.35;26.77;;;1.20;99.90;;;;;;5089177;28;20512;-90
2023/03/03 00:03:49;;;;;;;106.82;22.20;;;1.20;99.90;;;;;;5107202;28;20802;-90
2023/03/03 00:06:15;;;;;;;86.40;21.60;;;1.10;99.90;;;;;;5090060;28;20529;-89
2023/03/03 00:08:41;;;;;;;84.47;21.80;;;1.00;99.90;;;;;;5088701;28;20401;-90
2023/03/03 00:11:08;;;;;;;80.45;22.00;;;0.80;99.90;;;;;;5090154;28;20447;-89
2023/03/03 00:13:49;;;;;;;78.63;21.67;;;0.80;99.90;;;;;;5088589;28;20396;-90
2023/03/03 00:16:21;;;;;;;80.50;20.38;;;0.70;99.90;;;;;;5090072;28;20408;-91
2023/03/03 00:18:47;;;;;;;66.95;19.80;;;0.70;99.90;;;;;;5089448;28;20404;-90
2023/03/03 00:21:24;;;;;;;60.05;19.73;;;0.60;99.90;;;;;;5089714;28;20423;-90
2023/03/03 00:23:50;;;;;;;63.45;19.35;;;0.50;99.90;;;;;;5106993;28;20443;-90
2023/03/03 00:26:35;;;;;;;70.13;19.63;;;0.30;99.90;;;;;;5105679;28;20401;-90
2023/03/03 00:29:01;;;;;;;47.25;18.13;;;0.30;99.90;;;;;;5107513;28;20412;-90
2023/03/03 00:31:33;;;;;;;45.17;20.05;;;0.20;99.90;;;;;;5088776;28;20404;-90
2023/03/03 00:34:16;;;;;;;44.67;18.63;;;0.10;99.90;;;;;;5106461;28;20937;-90
2023/03/03 00:36:42;;;;;;;33.85;17.75;;;0.10;99.90;;;;;;5089995;28;20404;-90
2023/03/03 00:39:36;;;;;;;86.95;23.70;;;0.10;99.90;;;;;;5089039;28;20396;-90
2023/03/03 00:42:17;;;;;;;33.20;18.33;;;0.10;99.90;;;;;;5093772;28;20432;-90
2023/03/03 00:44:48;;;;;;;33.13;16.58;;;0.10;99.90;;;;;;5092805;28;20747;-90
2023/03/03 00:47:30;;;;;;;27.63;17.67;;;0.10;99.90;;;;;;5093407;28;20910;-91
2023/03/03 00:50:05;;;;;;;40.45;16.80;;;0.10;99.90;;;;;;5093859;28;20759;-88
2023/03/03 00:52:37;;;;;;;18.73;15.50;;;0.00;99.90;;;;;;5092178;28;20412;-90
2023/03/03 00:55:04;;;;;;;46.83;19.85;;;0.00;99.90;;;;;;5093466;28;20404;-90
2023/03/03 00:57:30;;;;;;;25.48;16.08;;;-0.10;99.90;;;;;;5109243;28;20410;-89
2023/03/03 00:59:55;;;;;;;30.50;15.68;;;-0.10;99.90;;;;;;5092941;28;20821;-90
2023/03/03 01:02:21;;;;;;;42.03;18.07;;;-0.20;99.90;;;;;;5109383;28;21121;-88
2023/03/03 01:04:55;;;;;;;23.70;17.53;;;-0.20;99.90;;;;;;5092342;28;20460;-89
2023/03/03 01:07:21;;;;;;;17.65;15.77;;;-0.20;99.90;;;;;;5109971;28;20790;-89
2023/03/03 01:09:47;;;;;;;15.60;14.00;;;-0.30;99.90;;;;;;5091672;28;20395;-89
2023/03/03 01:12:13;;;;;;;29.00;20.45;;;-0.20;99.90;;;;;;5093089;28;20389;-91
2023/03/03 01:14:39;;;;;;;20.20;17.20;;;-0.20;99.90;;;;;;5091090;28;20541;-90
2023/03/03 01:17:05;;;;;;;19.23;17.13;;;-0.20;99.90;;;;;;5092651;28;20389;-90
2023/03/03 01:19:31;;;;;;;16.88;15.13;;;-0.30;99.90;;;;;;5108491;28;20787;-89
2023/03/03 01:21:57;;;;;;;17.60;15.70;;;-0.10;99.90;;;;;;5092099;28;20480;-89
2023/03/03 01:24:22;;;;;;;17.10;15.40;;;-0.30;99.90;;;;;;5109582;28;20902;-90
2023/03/03 01:26:48;;;;;;;17.73;15.85;;;-0.40;99.90;;;;;;5108709;28;20400;-88
2023/03/03 01:29:14;;;;;;;15.98;14.27;;;-0.40;99.90;;;;;;5092583;28;20797;-89
2023/03/03 01:31:39;;;;;;;15.70;14.10;;;-0.40;99.90;;;;;;5090517;28;20508;-89
2023/03/03 01:34:06;;;;;;;16.70;15.00;;;-0.40;99.90;;;;;;5092265;28;20407;-90
2023/03/03 01:36:32;;;;;;;16.48;14.77;;;-0.40;99.90;;;;;;5107863;28;20443;-88
2023/03/03 01:38:57;;;;;;;23.00;18.45;;;-0.40;99.90;;;;;;5091680;28;20400;-90
2023/03/03 01:41:28;;;;;;;18.70;16.70;;;-0.40;99.90;;;;;;5108643;28;20983;-89
2023/03/03 01:43:54;;;;;;;20.55;17.50;;;-0.50;99.90;;;;;;5091070;28;20461;-88
2023/03/03 01:46:23;;;;;;;24.33;19.42;;;-0.50;99.90;;;;;;5091563;28;20405;-90
2023/03/03 01:48:51;;;;;;;17.35;15.55;;;-0.50;99.90;;;;;;5089888;28;20452;-89
2023/03/03 01:51:22;;;;;;;16.13;14.45;;;-0.50;99.90;;;;;;5108020;28;20431;-89
2023/03/03 01:53:58;;;;;;;17.65;15.85;;;-0.60;99.90;;;;;;5090328;28;20445;-88
2023/03/03 01:56:24;;;;;;;19.83;16.35;;;-0.60;99.90;;;;;;5091152;28;20495;-89
2023/03/03 01:59:01;;;;;;;17.08;15.27;;;-0.60;99.90;;;;;;5091075;28;20503;-88
2023/03/03 02:01:28;;;;;;;19.08;15.90;;;-0.60;99.90;;;;;;5090002;28;20933;-89
2023/03/03 02:03:54;;;;;;;15.32;13.82;;;-0.60;99.90;;;;;;5091299;28;20404;-89
2023/03/03 02:06:25;;;;;;;15.15;13.57;;;-0.60;99.90;;;;;;5089733;28;20420;-89
2023/03/03 02:08:52;;;;;;;15.68;13.70;;;-0.60;99.90;;;;;;5090830;28;20412;-88
2023/03/03 02:11:20;;;;;;;15.82;14.13;;;-0.70;99.90;;;;;;5090383;28;20871;-89
2023/03/03 02:13:46;;;;;;;20.73;16.92;;;-0.70;99.90;;;;;;5090696;28;20901;-89
2023/03/03 02:16:11;;;;;;;17.47;14.97;;;-0.70;99.90;;;;;;5090272;28;20903;-87
2023/03/03 02:18:37;;;;;;;15.33;13.83;;;-0.70;99.90;;;;;;5089757;28;20415;-89
2023/03/03 02:21:14;;;;;;;17.25;15.25;;;-0.80;99.90;;;;;;5090714;28;20420;-88
2023/03/03 02:24:02;;;;;;;15.32;13.73;;;-0.80;99.90;;;;;;5089589;28;21215;-88
2023/03/03 02:26:32;;;;;;;15.48;13.88;;;-0.80;99.90;;;;;;5090984;28;20412;-88
2023/03/03 02:28:58;;;;;;;18.00;16.10;;;-0.90;99.90;;;;;;5090489;28;20758;-88
2023/03/03 02:31:26;;;;;;;14.45;12.95;;;-0.90;99.90;;;;;;5089590;28;20404;-89
2023/03/03 02:33:53;;;;;;;15.13;13.65;;;-1.00;99.90;;;;;;5090488;28;20396;-88
2023/03/03 02:36:22;;;;;;;18.30;15.85;;;-1.00;99.90;;;;;;5089226;28;20774;-89
2023/03/03 02:39:05;;;;;;;19.25;16.55;;;-1.10;99.90;;;;;;5090876;28;20872;-88
2023/03/03 02:41:33;;;;;;;16.90;15.10;;;-1.00;99.90;;;;;;5089151;28;20937;-88
2023/03/03 02:44:08;;;;;;;14.40;13.00;;;-1.10;99.90;;;;;;5089938;28;20423;-87
2023/03/03 02:46:43;;;;;;;15.93;14.30;;;-1.10;99.90;;;;;;5106584;28;20410;-88
2023/03/03 02:49:10;;;;;;;17.23;15.43;;;-1.10;99.90;;;;;;5105876;28;20408;-89
2023/03/03 02:51:36;;;;;;;15.20;13.65;;;-1.10;99.90;;;;;;5107061;28;20400;-88
2023/03/03 02:54:03;;;;;;;14.63;13.13;;;-1.00;99.90;;;;;;5105095;28;20393;-88
2023/03/03 02:56:29;;;;;;;15.18;13.38;;;-1.10;99.90;;;;;;5089980;28;20488;-87
2023/03/03 02:58:54;;;;;;;14.23;12.82;;;-1.00;99.90;;;;;;5089140;28;20492;-88
2023/03/03 03:01:20;;;;;;;13.73;12.27;;;-1.10;99.90;;;;;;5089189;28;20482;-89
2023/03/03 03:03:46;;;;;;;14.75;12.65;;;-1.10;99.90;;;;;;5088528;28;20408;-87
2023/03/03 03:06:12;;;;;;;15.02;13.52;;;-1.10;99.90;;;;;;5088780;28;20796;-88
2023/03/03 03:08:37;;;;;;;13.35;12.05;;;-1.10;99.90;;;;;;5106427;28;20910;-88
2023/03/03 03:11:04;;;;;;;14.45;13.00;;;-1.10;99.90;;;;;;5088161;28;20487;-88
2023/03/03 03:13:31;;;;;;;13.13;11.73;;;-1.10;99.90;;;;;;5106499;28;20431;-89
2023/03/03 03:15:57;;;;;;;12.33;11.20;;;-1.10;99.90;;;;;;5105593;28;20767;-88
2023/03/03 03:18:22;;;;;;;14.65;13.15;;;-1.10;99.90;;;;;;5106260;28;20404;-88
2023/03/03 03:20:48;;;;;;;16.53;13.97;;;-1.10;99.90;;;;;;5088470;28;20873;-88
2023/03/03 03:23:14;;;;;;;14.20;12.70;;;-1.00;99.90;;;;;;5105804;28;20412;-88
2023/03/03 03:25:44;;;;;;;15.80;14.10;;;-1.00;99.90;;;;;;5089279;28;20416;-87
2023/03/03 03:28:14;;;;;;;13.38;11.57;;;-1.10;99.90;;;;;;5105183;28;20421;-88
2023/03/03 03:30:41;;;;;;;13.07;11.85;;;-1.20;99.90;;;;;;5089240;28;21334;-87
2023/03/03 03:33:06;;;;;;;13.80;12.40;;;-1.20;99.90;;;;;;5104478;28;20405;-88
2023/03/03 03:35:34;;;;;;;13.75;12.35;;;-1.20;99.90;;;;;;5089530;28;20406;-88
2023/03/03 03:38:00;;;;;;;13.13;11.73;;;-1.20;99.90;;;;;;5088125;28;20401;-87
2023/03/03 03:40:25;;;;;;;13.15;11.80;;;-1.20;99.90;;;;;;5088609;28;21017;-88
2023/03/03 03:42:52;;;;;;;15.03;13.33;;;-1.20;99.90;;;;;;5089014;28;20402;-88
2023/03/03 03:45:18;;;;;;;13.70;12.23;;;-1.20;99.90;;;;;;5087247;28;20397;-88
2023/03/03 03:47:44;;;;;;;14.40;12.90;;;-1.30;99.90;;;;;;5105791;28;20419;-88
2023/03/03 03:50:25;;;;;;;14.57;12.63;;;-1.30;99.90;;;;;;5087398;28;20400;-87
2023/03/03 03:52:50;;;;;;;14.77;13.10;;;-1.30;99.90;;;;;;5106162;28;20494;-88
2023/03/03 03:55:16;;;;;;;14.33;12.30;;;-1.30;99.90;;;;;;5087958;28;20404;-88
2023/03/03 03:57:42;;;;;;;13.27;11.63;;;-1.30;99.90;;;;;;5087906;28;20505;-88
2023/03/03 04:00:10;;;;;;;13.70;12.30;;;-1.30;99.90;;;;;;5088031;28;21060;-88
2023/03/03 04:02:36;;;;;;;14.43;12.68;;;-1.40;99.90;;;;;;5104481;28;20505;-88
2023/03/03 04:05:02;;;;;;;16.05;14.30;;;-1.30;99.90;;;;;;5088295;28;20916;-86
2023/03/03 04:07:27;;;;;;;14.60;12.82;;;-1.30;99.90;;;;;;5086731;28;20423;-88
2023/03/03 04:09:53;;;;;;;12.80;11.13;;;-1.40;99.90;;;;;;5105759;28;20903;-87
2023/03/03 04:12:19;;;;;;;11.55;10.00;;;-1.40;99.90;;;;;;5103655;28;20824;-87
2023/03/03 04:14:44;;;;;;;12.98;11.23;;;-1.40;99.90;;;;;;5089218;28;20408;-87
2023/03/03 04:17:21;;;;;;;12.73;11.00;;;-1.50;99.90;;;;;;5091455;28;20979;-87
2023/03/03 04:19:47;;;;;;;14.60;12.70;;;-1.50;99.90;;;;;;5091715;28;20823;-87
2023/03/03 04:22:13;;;;;;;13.70;12.18;;;-1.50;99.90;;;;;;5109633;28;20481;-87
2023/03/03 04:24:39;;;;;;;13.93;11.45;;;-1.50;99.90;;;;;;5108072;28;20496;-87
2023/03/03 04:27:06;;;;;;;14.43;11.45;;;-1.60;99.90;;;;;;5109398;28;20396;-88
2023/03/03 04:29:31;;;;;;;15.15;12.45;;;-1.50;99.90;;;;;;5107429;28;20449;-86
2023/03/03 04:31:57;;;;;;;13.52;11.98;;;-1.60;99.90;;;;;;5092204;28;20393;-88
2023/03/03 04:34:23;;;;;;;12.90;10.60;;;-1.60;99.90;;;;;;5108434;28;20423;-87
2023/03/03 04:36:48;;;;;;;14.00;12.27;;;-1.40;99.90;;;;;;5108402;28;20747;-87
2023/03/03 04:39:14;;;;;;;16.00;13.37;;;-1.60;99.90;;;;;;5091481;28;20394;-88
2023/03/03 04:41:39;;;;;;;11.47;10.20;;;-1.60;99.90;;;;;;5107969;28;20583;-88
2023/03/03 04:44:05;;;;;;;15.00;13.07;;;-1.60;99.90;;;;;;5092084;28;20461;-88
2023/03/03 04:46:31;;;;;;;13.18;10.57;;;-1.60;99.90;;;;;;5089916;28;20891;-87
2023/03/03 04:48:56;;;;;;;11.73;10.30;;;-1.60;99.90;;;;;;5108937;28;20400;-89
2023/03/03 04:51:22;;;;;;;16.93;13.00;;;-1.70;99.90;;;;;;5107604;28;20393;-87
2023/03/03 04:53:48;;;;;;;14.70;12.47;;;-1.60;99.90;;;;;;5091673;28;21209;-86
2023/03/03 04:56:13;;;;;;;18.30;14.63;;;-1.70;99.90;;;;;;5090749;28;20401;-87
2023/03/03 04:58:39;;;;;;;14.45;11.88;;;-1.60;99.90;;;;;;5090671;28;20413;-87
2023/03/03 05:01:05;;;;;;;13.33;11.43;;;-1.70;99.90;;;;;;5108397;28;20436;-87
2023/03/03 05:03:30;;;;;;;14.13;10.57;;;-1.70;99.90;;;;;;5107124;28;20399;-87
2023/03/03 05:05:56;;;;;;;14.53;11.13;;;-1.70;99.90;;;;;;5091529;28;20396;-87
2023/03/03 05:08:22;;;;;;;14.25;10.10;;;-1.70;99.90;;;;;;5106436;28;20907;-87
2023/03/03 05:10:52;;;;;;;15.93;12.50;;;-1.70;99.90;;;;;;5091181;28;20453;-87
2023/03/03 05:13:17;;;;;;;13.98;10.98;;;-1.70;99.90;;;;;;5107107;28;20822;-87
2023/03/03 05:15:49;;;;;;;15.20;11.63;;;-1.70;99.90;;;;;;5107808;28;20483;-87
2023/03/03 05:18:14;;;;;;;15.75;12.27;;;-1.50;99.90;;;;;;5108215;28;20502;-87
2023/03/03 05:20:40;;;;;;;10.30;9.03;;;-1.60;99.90;;;;;;5089653;28;20579;-87
2023/03/03 05:23:06;;;;;;;11.55;9.32;;;-1.70;99.90;;;;;;5091593;28;20416;-87
2023/03/03 05:25:32;;;;;;;12.95;10.27;;;-1.70;99.90;;;;;;5106051;28;20403;-87
2023/03/03 05:27:58;;;;;;;11.77;9.80;;;-1.70;99.90;;;;;;5107322;28;20411;-88
2023/03/03 05:30:23;;;;;;;14.03;9.20;;;-1.70;99.90;;;;;;5106682;28;20400;-87
2023/03/03 05:32:49;;;;;;;12.53;8.80;;;-1.50;99.90;;;;;;5091029;28;20404;-88
2023/03/03 05:35:15;;;;;;;14.13;10.90;;;-1.80;99.90;;;;;;5090207;28;20400;-86
2023/03/03 05:37:45;;;;;;;11.40;9.00;;;-1.70;99.90;;;;;;5106978;28;20501;-87
2023/03/03 05:40:12;;;;;;;11.40;8.88;;;-1.80;99.90;;;;;;5107414;28;20417;-87
2023/03/03 05:42:37;;;;;;;9.60;8.13;;;-1.80;99.90;;;;;;5089532;28;20981;-87
2023/03/03 05:45:03;;;;;;;14.67;9.80;;;-1.80;99.90;;;;;;5107436;28;20528;-87
2023/03/03 05:47:29;;;;;;;9.68;8.43;;;-1.80;99.90;;;;;;5105959;28;20397;-87
2023/03/03 05:49:55;;;;;;;13.27;10.87;;;-1.80;99.90;;;;;;5107650;28;20724;-87
2023/03/03 05:52:21;;;;;;;15.40;11.30;;;-1.80;99.90;;;;;;5106469;28;20400;-87
2023/03/03 05:54:46;;;;;;;11.38;8.82;;;-1.80;99.90;;;;;;5089896;27;20483;-86
2023/03/03 05:57:12;;;;;;;12.00;9.60;;;-1.80;99.90;;;;;;5126695;27;20837;-86
2023/03/03 05:59:38;;;;;;;14.20;9.20;;;-1.80;99.90;;;;;;5126275;27;20936;-87
2023/03/03 06:02:03;;;;;;;11.87;8.60;;;-1.90;99.90;;;;;;5127947;27;20398;-87
2023/03/03 06:04:29;;;;;;;12.53;8.20;;;-1.80;99.90;;;;;;5125851;27;20442;-87
2023/03/03 06:06:55;;;;;;;14.90;9.60;;;-1.80;99.90;;;;;;5129306;27;20422;-87
2023/03/03 06:09:21;;;;;;;11.57;9.00;;;-1.80;99.90;;;;;;5112269;27;20461;-86
2023/03/03 06:11:46;;;;;;;11.10;8.20;;;-1.90;99.90;;;;;;5125989;27;20409;-86
2023/03/03 06:14:12;;;;;;;11.60;8.25;;;-1.90;99.90;;;;;;5109304;27;20403;-85
2023/03/03 06:16:38;;;;;;;10.93;8.25;;;-1.90;99.90;;;;;;5109255;27;20742;-85
2023/03/03 06:19:04;;;;;;;10.13;7.38;;;-1.90;99.90;;;;;;5109899;27;20932;-86
2023/03/03 06:21:30;;;;;;;11.05;7.95;;;-1.90;99.90;;;;;;5108162;27;20792;-86
2023/03/03 06:23:55;;;;;;;10.32;7.45;;;-2.00;99.90;;;;;;5110296;27;20410;-87
2023/03/03 06:26:21;;;;;;;10.20;7.10;;;-1.90;99.90;;;;;;5107459;27;20395;-85
2023/03/03 06:28:49;;;;;;;12.93;8.25;;;-1.90;99.90;;;;;;5109949;27;20402;-86
2023/03/03 06:31:14;;;;;;;11.85;7.30;;;-1.90;99.90;;;;;;5108517;27;20888;-86
2023/03/03 06:33:41;;;;;;;12.73;7.50;;;-1.90;99.90;;;;;;5109529;27;20395;-86
2023/03/03 06:36:07;;;;;;;11.10;7.18;;;-1.90;99.90;;;;;;5109845;27;20765;-86
2023/03/03 06:38:32;;;;;;;7.90;6.88;;;-1.80;99.90;;;;;;5107867;27;20407;-86
2023/03/03 06:41:00;;;;;;;10.17;7.90;;;-1.80;99.90;;;;;;5108742;27;20468;-86
2023/03/03 06:43:26;;;;;;;9.35;6.80;;;-1.80;99.90;;;;;;5108186;27;20663;-86
2023/03/03 06:45:52;;;;;;;11.10;7.70;;;-1.80;99.90;;;;;;5109676;27;20479;-87
2023/03/03 06:48:18;;;;;;;14.70;11.10;;;-1.70;99.90;;;;;;5091614;27;20443;-85
2023/03/03 06:50:43;;;;;;;9.82;6.70;;;-1.70;99.90;;;;;;5092326;27;20409;-87
2023/03/03 06:53:14;;;;;;;10.88;7.75;;;-1.60;99.90;;;;;;5110213;27;20413;-88
2023/03/03 06:55:43;;;;;;;12.27;9.43;;;-1.60;99.90;;;;;;5128741;27;20829;-86
2023/03/03 06:58:17;;;;;;;11.93;8.80;;;-1.60;99.90;;;;;;5112521;27;20397;-86
2023/03/03 07:00:48;;;;;;;13.43;9.27;;;-1.50;99.90;;;;;;5110080;27;20788;-86
2023/03/03 07:03:17;;;;;;;17.85;13.88;;;-1.40;99.90;;;;;;5130075;27;20397;-87
2023/03/03 07:05:44;;;;;;;13.25;9.80;;;-1.40;99.90;;;;;;5127703;27;20385;-86
2023/03/03 07:08:16;;;;;;;22.42;17.25;;;-1.40;99.90;;;;;;5128152;27;20408;-86
2023/03/03 07:10:42;;;;;;;21.73;18.30;;;-1.30;99.90;;;;;;5100954;27;20527;-86
2023/03/03 07:13:22;;;;;;;32.35;25.38;;;-1.30;99.90;;;;;;5107548;27;20390;-87
2023/03/03 07:15:52;;;;;;;30.77;24.58;;;-1.20;99.90;;;;;;5091039;27;20405;-87
2023/03/03 07:18:52;;;;;;;17.45;14.85;;;-1.00;99.90;;;;;;5106899;27;20391;-86
2023/03/03 07:21:19;;;;;;;18.13;13.00;;;-1.00;99.90;;;;;;5108331;27;20419;-87
2023/03/03 07:23:47;;;;;;;14.23;10.82;;;-1.00;99.90;;;;;;5108119;27;20402;-87
2023/03/03 07:26:29;;;;;;;15.57;10.60;;;-0.80;99.90;;;;;;5090435;27;21004;-88
2023/03/03 07:29:07;;;;;;;13.95;9.73;;;-0.60;99.90;;;;;;5091551;27;20403;-88
2023/03/03 07:31:41;;;;;;;14.05;9.13;;;-0.60;99.90;;;;;;5106438;27;20463;-87
2023/03/03 07:34:42;;;;;;;17.37;9.50;;;-0.50;99.90;;;;;;5108679;27;20465;-87
2023/03/03 07:37:37;;;;;;;12.27;9.07;;;-0.40;99.90;;;;;;5126224;27;20463;-84
2023/03/03 07:40:31;;;;;;;13.43;8.43;;;-0.30;99.90;;;;;;5087820;27;20423;-88
2023/03/03 07:42:57;;;;;;;15.07;10.43;;;-0.10;99.90;;;;;;5108107;28;20413;-89
2023/03/03 07:45:36;;;;;;;17.95;12.25;;;0.10;99.90;;;;;;5107702;28;20905;-87
2023/03/03 07:48:20;;;;;;;15.90;11.38;;;0.20;99.90;;;;;;5089803;28;20402;-88
2023/03/03 07:50:49;;;;;;;17.77;11.32;;;0.30;99.90;;;;;;5111971;27;20871;-89
2023/03/03 07:53:27;;;;;;;16.83;10.55;;;0.40;99.90;;;;;;5094073;27;20402;-88
2023/03/03 07:55:53;;;;;;;13.82;9.70;;;0.60;99.90;;;;;;5112224;27;20399;-88
2023/03/03 07:58:23;;;;;;;13.55;10.18;;;0.70;99.90;;;;;;5095289;27;20502;-88
2023/03/03 08:01:16;;;;;;;21.42;11.77;;;0.70;99.90;;;;;;5110764;27;20427;-89
2023/03/03 08:03:45;;;;;;;13.00;10.30;;;1.10;99.90;;;;;;5113268;27;20480;-87
2023/03/03 08:06:36;;;;;;;12.98;9.20;;;1.30;99.90;;;;;;5094229;27;20501;-86
2023/03/03 08:09:11;;;;;;;15.18;9.95;;;1.40;99.90;;;;;;5111057;27;20516;-87
2023/03/03 08:11:50;;;;;;;14.80;10.40;;;1.40;99.90;;;;;;5112661;27;21085;-87
2023/03/03 08:14:23;;;;;;;15.37;11.20;;;1.50;99.90;;;;;;5110261;27;20406;-87
2023/03/03 08:16:49;;;;;;;14.73;12.15;;;1.50;99.90;;;;;;5095490;27;20768;-86
2023/03/03 08:19:17;;;;;;;12.57;8.43;;;1.60;99.90;;;;;;5110634;27;20410;-86
2023/03/03 08:21:43;;;;;;;11.43;8.50;;;1.80;99.90;;;;;;5111272;27;20430;-87
2023/03/03 08:24:09;;;;;;;13.65;9.23;;;2.00;99.90;;;;;;5111851;27;20611;-87
2023/03/03 08:26:35;;;;;;;12.50;9.00;;;2.10;99.90;;;;;;5110548;27;20413;-87
2023/03/03 08:29:01;;;;;;;11.00;8.02;;;2.40;99.90;;;;;;5111866;27;20764;-87
2023/03/03 08:31:28;;;;;;;18.80;15.85;;;2.50;99.90;;;;;;5093706;27;20399;-87
2023/03/03 08:33:54;;;;;;;16.98;12.95;;;2.70;99.90;;;;;;5095055;27;20438;-86
2023/03/03 08:36:20;;;;;;;16.45;13.50;;;2.90;99.90;;;;;;5093036;27;20464;-85
2023/03/03 08:38:46;;;;;;;13.15;8.43;;;3.00;99.90;;;;;;5111859;27;20485;-87
2023/03/03 08:41:12;;;;;;;9.55;6.43;;;3.20;99.90;;;;;;5093890;27;20514;-87
2023/03/03 08:43:38;;;;;;;8.60;4.38;;;3.50;99.90;;;;;;5093980;27;20394;-86
2023/03/03 08:46:05;;;;;;;8.20;4.47;;;3.70;99.90;;;;;;5094078;27;20413;-87
2023/03/03 08:48:32;;;;;;;9.77;4.40;;;3.90;99.90;;;;;;5110164;27;20897;-87
2023/03/03 08:50:58;;;;;;;9.25;4.07;;;3.90;99.90;;;;;;5095541;27;20391;-87
2023/03/03 08:53:24;;;;;;;6.22;3.42;;;4.00;99.90;;;;;;5109954;27;20403;-87
2023/03/03 08:55:50;;;;;;;6.88;3.47;;;4.10;99.90;;;;;;5095276;27;20448;-87
2023/03/03 08:58:18;;;;;;;6.95;2.97;;;4.10;99.90;;;;;;5110698;27;20438;-86
2023/03/03 09:00:44;;;;;;;8.87;3.20;;;4.10;99.90;;;;;;5111191;27;20826;-86
2023/03/03 09:03:10;;;;;;;10.85;6.70;;;4.40;99.90;;;;;;5094749;27;20399;-85
2023/03/03 09:05:38;;;;;;;7.90;3.03;;;4.70;99.90;;;;;;5110745;27;20560;-87
2023/03/03 09:08:06;;;;;;;5.68;0.60;;;5.10;99.90;;;;;;5111086;27;20402;-86
2023/03/03 09:10:32;;;;;;;4.22;0.40;;;5.40;99.90;;;;;;5092885;27;20403;-86
2023/03/03 09:13:03;;;;;;;4.00;0.55;;;5.70;99.90;;;;;;5112216;27;20892;-87
2023/03/03 09:15:32;;;;;;;3.10;0.30;;;6.00;99.90;;;;;;5092581;27;20391;-85
2023/03/03 09:18:25;;;;;;;1.42;0.20;;;6.20;98.40;;;;;;5094001;27;20406;-87
2023/03/03 09:20:56;;;;;;;3.03;0.30;;;6.50;96.50;;;;;;5093845;27;20418;-87
2023/03/03 09:23:36;;;;;;;4.68;0.50;;;6.70;95.90;;;;;;5109939;27;20411;-86
2023/03/03 09:26:25;;;;;;;2.83;0.40;;;6.80;95.50;;;;;;5095166;27;20734;-87
2023/03/03 09:28:59;;;;;;;4.63;0.38;;;6.70;95.60;;;;;;5110122;27;20413;-87
2023/03/03 09:31:34;;;;;;;4.22;0.45;;;6.70;94.90;;;;;;5093602;27;20398;-86
2023/03/03 09:33:59;;;;;;;3.55;0.30;;;6.70;96.10;;;;;;5094586;27;20458;-88
2023/03/03 09:36:28;;;;;;;2.13;0.30;;;6.80;95.20;;;;;;5092391;27;20501;-87
2023/03/03 09:38:55;;;;;;;5.88;0.60;;;6.80;95.40;;;;;;5094412;27;20528;-88
2023/03/03 09:41:39;;;;;;;4.72;0.50;;;6.90;94.30;;;;;;5109757;27;20415;-86
2023/03/03 09:44:38;;;;;;;4.22;0.50;;;6.80;94.40;;;;;;5110731;27;20413;-87
2023/03/03 09:47:10;;;;;;;1.58;0.30;;;6.80;94.60;;;;;;5093920;27;20502;-87
2023/03/03 09:49:56;;;;;;;2.97;0.38;;;6.70;94.30;;;;;;5092080;27;20452;-86
2023/03/03 09:52:46;;;;;;;3.70;0.50;;;6.60;94.40;;;;;;5111200;27;20403;-88
2023/03/03 09:55:12;;;;;;;3.75;0.30;;;6.60;94.30;;;;;;5093734;27;20494;-86
2023/03/03 09:58:07;;;;;;;1.77;0.30;;;6.60;95.10;;;;;;5092380;27;20980;-86
2023/03/03 10:00:58;;;;;;;2.60;0.45;;;6.60;94.90;;;;;;5111048;27;20458;-87
2023/03/03 10:04:04;;;;;;;3.60;0.35;;;6.70;94.40;;;;;;5109843;27;20909;-86
2023/03/03 10:06:48;;;;;;;2.60;0.30;;;6.70;93.50;;;;;;5109547;27;20792;-87
2023/03/03 10:09:45;;;;;;;4.40;0.40;;;6.80;94.30;;;;;;5110651;27;20482;-86
2023/03/03 10:12:34;;;;;;;3.20;0.30;;;6.90;93.60;;;;;;5124679;27;20526;-86
2023/03/03 10:15:10;;;;;;;3.90;0.20;;;6.90;93.50;;;;;;5095894;27;20406;-88
2023/03/03 10:17:49;;;;;;;2.60;0.28;;;7.00;92.80;;;;;;5116774;27;20413;-87
2023/03/03 10:20:36;;;;;;;3.63;0.20;;;7.00;93.10;;;;;;5102338;27;20437;-87
2023/03/03 10:23:05;;;;;;;3.10;0.30;;;7.00;92.30;;;;;;5113665;27;20435;-87
2023/03/03 10:25:33;;;;;;;4.18;0.30;;;7.00;92.20;;;;;;5113635;27;20418;-86
2023/03/03 10:28:29;;;;;;;2.53;0.30;;;7.00;92.70;;;;;;5112289;27;20397;-87
2023/03/03 10:31:03;;;;;;;3.00;0.20;;;7.10;92.30;;;;;;5131353;27;20768;-88
2023/03/03 10:33:41;;;;;;;2.10;0.30;;;7.10;91.30;;;;;;5112849;27;20495;-87
2023/03/03 10:36:38;;;;;;;3.10;0.30;;;7.10;91.30;;;;;;5113608;27;20492;-88
2023/03/03 10:39:45;;;;;;;2.30;0.20;;;7.10;90.00;;;;;;5129700;27;20409;-87
2023/03/03 10:42:19;;;;;;;3.30;0.30;;;7.20;89.40;;;;;;5074254;27;20890;-88
2023/03/03 10:44:48;;;;;;;2.75;0.50;;;7.20;88.20;;;;;;5113135;27;20431;-87
2023/03/03 10:47:44;;;;;;;2.65;0.20;;;7.40;90.90;;;;;;5130979;27;20405;-87
2023/03/03 10:50:30;;;;;;;2.22;0.20;;;7.50;86.40;;;;;;5129291;27;21044;-88
2023/03/03 10:53:04;;;;;;;2.70;0.20;;;7.50;86.20;;;;;;5113495;27;20397;-88
2023/03/03 10:55:50;;;;;;;2.28;0.30;;;7.60;86.50;;;;;;5112824;27;20891;-87
2023/03/03 10:58:39;;;;;;;1.73;0.10;;;7.90;88.40;;;;;;5111915;27;20409;-88
2023/03/03 11:01:14;;;;;;;2.20;0.20;;;8.20;86.50;;;;;;5113501;27;20425;-86
2023/03/03 11:03:48;;;;;;;2.05;0.20;;;8.50;86.70;;;;;;5111954;27;20420;-87
2023/03/03 11:06:28;;;;;;;1.85;0.20;;;8.70;83.20;;;;;;5113429;27;20951;-88
2023/03/03 11:08:55;;;;;;;2.92;0.20;;;8.90;81.50;;;;;;5113002;27;20487;-88
2023/03/03 11:11:41;;;;;;;3.35;0.32;;;9.10;82.40;;;;;;5112207;27;20404;-88
2023/03/03 11:14:26;;;;;;;2.38;0.20;;;9.20;78.70;;;;;;5113648;27;20397;-88
2023/03/03 11:17:13;;;;;;;3.75;0.30;;;9.50;83.00;;;;;;5129298;27;20397;-88
2023/03/03 11:19:52;;;;;;;2.35;0.30;;;9.70;80.30;;;;;;5112521;27;20499;-89
2023/03/03 11:22:43;;;;;;;2.97;0.30;;;9.70;78.10;;;;;;5114016;27;20401;-88
2023/03/03 11:25:26;;;;;;;2.80;0.20;;;9.60;76.10;;;;;;5111208;27;20404;-89
2023/03/03 11:28:17;;;;;;;3.35;0.30;;;9.60;75.00;;;;;;5112916;27;20476;-88
2023/03/03 11:31:14;;;;;;;2.15;0.20;;;9.90;76.90;;;;;;5113196;27;20409;-89
2023/03/03 11:33:55;;;;;;;3.08;0.25;;;10.00;73.40;;;;;;5111874;27;20457;-89
2023/03/03 11:36:35;;;;;;;3.55;0.20;;;9.80;73.40;;;;;;5108151;27;20903;-88
2023/03/03 11:39:07;;;;;;;2.20;0.20;;;9.50;74.20;;;;;;5112927;27;20431;-87
2023/03/03 11:41:51;;;;;;;4.60;0.30;;;9.30;75.50;;;;;;5111916;27;20520;-88
2023/03/03 11:44:34;;;;;;;4.13;0.30;;;9.10;76.30;;;;;;5113280;27;20810;-88
2023/03/03 11:47:11;;;;;;;4.47;0.28;;;9.10;80.70;;;;;;5111810;27;20410;-88
2023/03/03 11:49:46;;;;;;;3.45;0.28;;;9.70;83.70;;;;;;5112060;27;20437;-88
2023/03/03 11:52:52;;;;;;;3.78;0.30;;;10.10;78.20;;;;;;5112724;27;20396;-88
2023/03/03 11:55:36;;;;;;;3.67;0.20;;;10.20;72.20;;;;;;5128582;27;20498;-88
2023/03/03 11:58:21;;;;;;;4.40;0.30;;;9.90;71.70;;;;;;5129704;27;20950;-88
2023/03/03 12:01:10;;;;;;;4.78;0.45;;;9.60;70.40;;;;;;5129700;27;20783;-87
2023/03/03 12:03:58;;;;;;;5.25;0.32;;;10.00;74.30;;;;;;5111474;27;20849;-87
2023/03/03 12:06:45;;;;;;;3.80;0.30;;;10.40;72.40;;;;;;5113574;27;20936;-89
2023/03/03 12:09:43;;;;;;;3.65;0.35;;;10.50;69.00;;;;;;5113489;27;20819;-87
2023/03/03 12:12:18;;;;;;;5.33;0.33;;;10.20;70.20;;;;;;5107715;27;20413;-88
2023/03/03 12:15:16;;;;;;;6.18;0.50;;;9.90;73.90;;;;;;5113363;27;20937;-89
2023/03/03 12:17:57;;;;;;;3.45;0.50;;;9.90;74.40;;;;;;5111796;27;20465;-89
2023/03/03 12:20:33;;;;;;;4.20;0.30;;;10.30;72.90;;;;;;5111695;27;20787;-89
2023/03/03 12:22:58;;;;;;;4.90;0.40;;;10.30;72.10;;;;;;5130588;27;20525;-88
2023/03/03 12:25:40;;;;;;;3.77;0.40;;;10.00;71.70;;;;;;5129057;27;20511;-89
2023/03/03 12:28:19;;;;;;;6.30;0.60;;;9.90;73.20;;;;;;5113326;27;20824;-88
2023/03/03 12:30:48;;;;;;;4.72;0.30;;;10.60;72.10;;;;;;5112256;27;20698;-88
2023/03/03 12:33:28;;;;;;;5.95;0.40;;;11.00;69.80;;;;;;5129623;27;20845;-89
2023/03/03 12:36:06;;;;;;;4.63;0.68;;;11.00;68.10;;;;;;5132583;27;20407;-89
2023/03/03 12:38:50;;;;;;;6.13;0.65;;;10.90;70.40;;;;;;5132580;27;20953;-87
2023/03/03 12:41:26;;;;;;;5.28;0.40;;;10.60;69.40;;;;;;5116625;27;20424;-90
2023/03/03 12:44:17;;;;;;;5.55;0.50;;;10.30;71.60;;;;;;5117028;27;20484;-88
2023/03/03 12:46:53;;;;;;;7.75;0.82;;;10.00;74.50;;;;;;5116080;27;20408;-89
2023/03/03 12:49:19;;;;;;;66.10;59.80;;;9.80;76.90;;;;;;5117221;27;20514;-89
2023/03/03 12:52:26;;;;;;;6.43;0.85;;;9.70;77.10;;;;;;5115121;27;20911;-88
2023/03/03 12:55:10;;;;;;;8.20;0.77;;;9.60;75.60;;;;;;5104934;27;20405;-89
2023/03/03 12:57:50;;;;;;;7.68;1.00;;;9.50;75.20;;;;;;5116996;27;20460;-88
2023/03/03 13:00:26;;;;;;;12.97;3.73;;;9.50;74.90;;;;;;5114996;27;20820;-88
2023/03/03 13:03:06;;;;;;;7.82;1.00;;;9.50;76.60;;;;;;5116436;27;20500;-88
2023/03/03 13:06:13;;;;;;;10.25;0.95;;;9.60;75.80;;;;;;5133398;27;20405;-88